Scroll down
FLIGHT INFORMATION
Federal Express (FedEx)

FDX9860

At Arrival Gate

KRNO
 KOAK
DATE: 2022-01-05
GATE: 8
GATE DEPARTURE: 20:53
TAKEOFF: 21:02
DATE: 2022-01-05
GATE:  -
LANDING: 21:36
GATE ARRIVAL: 21:41
FLIGHT DATA
Crew: 
Speed: 
460 kts
Altitude: 
26,009 ft
Stage Length: 
157.0 nm
Block Time: 
0.8 hrs
Flight Time: 
0.6 hrs
Fuel Used: 
9,269 lb
Cleared Route: KRNO MRLET KOAK
TRACK DATA
50,000 ft 1,000 kts
AIRCRAFT INFO AND CUMULATIVE STATS
Aircraft Type: 
B77LF
Registration: 
SELCAL: 
MSN/LN: 
37731 / 1601
Total Flights: 
4
Total Block Time: 
7.9 hrs
Total Flight Time: 
6.5 hrs
Total Fuel Used: 
116,974 lb
DATALINK LOG | Newest first | Current as of: 2023-02-07 02:23:24
LABEL SEQUENCE CONTENT Dn/Up
QD461821:41 15.4▼ Dn
QC401421:36▼ Dn
QB054521:02▼ Dn
QA573720:53 24.7▼ Dn
A34030CLEARED TO KOAK VIA ZEFFR6 MRLET OAKES2. SQUAWK 6004.▲ Up
2U4029KOAK 051653Z 15008KT 10SM FEW008 OVC010 11/10 A3034 RMK AO2 SLP274 T01110100▲ Up
2U4028KRNO 051655Z 18004KT 10SM SCT050 SCT200 07/01 A3024 RMK AO2 SLP232 T00720011▲ Up
2S4028KRNO KOAK▼ Dn
Q03920[LINK ACK]▲ Up
Q03920[LINK TEST]▼ Dn


AIRCRAFT HISTORY
FLIGHT DATE FLIGHT NO. ORIGIN DESTINATION CLEARED ROUTE BLOCK TIME FLIGHT TIME FUEL USED PILOT
2022-01-05FDX9860KRNO KOAK KRNO MRLET KOAK0.8 hrs0.6 hrs9,269 lbAllan Burek
2021-10-29FDX519KMEM KRNO KMEM BEEAL PRYMD HIVUS STVVV ZUMIT FOXOM KK39E KD48W KU51O MVA KRNO3.6 hrs3.4 hrs56,866 lbChemtrails
2021-03-30FDX330KAUS KMEM KAUS ZENZI LFK ELD KMEM1.6 hrs1.3 hrs25,320 lbCharles Harris
2021-03-21FDX383KMEM KAUS KMEM CHETO MUDHO NIXOE PEPOC CHLDR ANSWA LIT TXK WINDU GABOO SEWZY VADRR MGTEC JEDYE KAUS1.8 hrs1.3 hrs25,518 lbJohn Binner